sensor_id;sensor_type;location;lat;lon;timestamp;P1;durP1;ratioP1;P2;durP2;ratioP2
77055;SDS011;67471;44.918;8.614;2023-10-08T00:00:04;33.67;;;24.33;;
77055;SDS011;67471;44.918;8.614;2023-10-08T00:03:28;34.38;;;24.50;;
77055;SDS011;67471;44.918;8.614;2023-10-08T00:06:32;38.95;;;26.70;;
77055;SDS011;67471;44.918;8.614;2023-10-08T00:09:36;37.35;;;26.60;;
77055;SDS011;67471;44.918;8.614;2023-10-08T00:12:40;38.30;;;25.55;;
77055;SDS011;67471;44.918;8.614;2023-10-08T00:15:44;36.53;;;24.77;;
77055;SDS011;67471;44.918;8.614;2023-10-08T00:18:57;39.22;;;25.98;;
77055;SDS011;67471;44.918;8.614;2023-10-08T00:22:11;36.72;;;25.23;;
77055;SDS011;67471;44.918;8.614;2023-10-08T00:25:16;38.35;;;27.05;;
77055;SDS011;67471;44.918;8.614;2023-10-08T00:28:23;38.53;;;25.45;;
77055;SDS011;67471;44.918;8.614;2023-10-08T00:31:27;42.22;;;27.27;;
77055;SDS011;67471;44.918;8.614;2023-10-08T00:34:35;39.63;;;26.60;;
77055;SDS011;67471;44.918;8.614;2023-10-08T00:37:44;37.60;;;26.30;;
77055;SDS011;67471;44.918;8.614;2023-10-08T00:40:48;35.72;;;25.88;;
77055;SDS011;67471;44.918;8.614;2023-10-08T00:43:52;40.00;;;26.70;;
77055;SDS011;67471;44.918;8.614;2023-10-08T00:46:58;42.33;;;27.42;;
77055;SDS011;67471;44.918;8.614;2023-10-08T00:50:07;40.38;;;28.55;;
77055;SDS011;67471;44.918;8.614;2023-10-08T00:53:12;38.95;;;25.90;;
77055;SDS011;67471;44.918;8.614;2023-10-08T00:56:28;37.30;;;27.48;;
77055;SDS011;67471;44.918;8.614;2023-10-08T00:59:51;41.30;;;26.80;;
77055;SDS011;67471;44.918;8.614;2023-10-08T01:02:59;41.70;;;28.23;;
77055;SDS011;67471;44.918;8.614;2023-10-08T01:06:05;43.78;;;28.88;;
77055;SDS011;67471;44.918;8.614;2023-10-08T01:09:13;40.77;;;28.53;;
77055;SDS011;67471;44.918;8.614;2023-10-08T01:12:25;45.83;;;30.90;;
77055;SDS011;67471;44.918;8.614;2023-10-08T01:15:39;47.83;;;29.58;;
77055;SDS011;67471;44.918;8.614;2023-10-08T01:18:45;43.50;;;28.50;;
77055;SDS011;67471;44.918;8.614;2023-10-08T01:21:53;43.63;;;29.73;;
77055;SDS011;67471;44.918;8.614;2023-10-08T01:24:57;43.03;;;29.30;;
77055;SDS011;67471;44.918;8.614;2023-10-08T01:28:04;44.45;;;29.20;;
77055;SDS011;67471;44.918;8.614;2023-10-08T01:31:17;40.75;;;30.15;;
77055;SDS011;67471;44.918;8.614;2023-10-08T01:34:21;49.60;;;32.30;;
77055;SDS011;67471;44.918;8.614;2023-10-08T01:37:30;47.65;;;32.03;;
77055;SDS011;67471;44.918;8.614;2023-10-08T01:40:37;49.47;;;33.42;;
77055;SDS011;67471;44.918;8.614;2023-10-08T01:43:42;47.03;;;31.02;;
77055;SDS011;67471;44.918;8.614;2023-10-08T01:46:46;50.80;;;34.33;;
77055;SDS011;67471;44.918;8.614;2023-10-08T01:49:53;46.38;;;30.88;;
77055;SDS011;67471;44.918;8.614;2023-10-08T01:53:09;42.65;;;29.55;;
77055;SDS011;67471;44.918;8.614;2023-10-08T01:56:13;42.85;;;30.50;;
77055;SDS011;67471;44.918;8.614;2023-10-08T01:59:17;42.38;;;28.52;;
77055;SDS011;67471;44.918;8.614;2023-10-08T02:02:21;45.45;;;29.02;;
77055;SDS011;67471;44.918;8.614;2023-10-08T02:05:25;46.65;;;30.20;;
77055;SDS011;67471;44.918;8.614;2023-10-08T02:08:28;37.95;;;28.05;;
77055;SDS011;67471;44.918;8.614;2023-10-08T02:11:48;40.83;;;28.38;;
77055;SDS011;67471;44.918;8.614;2023-10-08T02:14:56;40.63;;;27.58;;
77055;SDS011;67471;44.918;8.614;2023-10-08T02:18:00;45.72;;;28.77;;
77055;SDS011;67471;44.918;8.614;2023-10-08T02:21:04;38.88;;;27.52;;
77055;SDS011;67471;44.918;8.614;2023-10-08T02:24:08;38.83;;;26.88;;
77055;SDS011;67471;44.918;8.614;2023-10-08T02:27:15;36.63;;;26.63;;
77055;SDS011;67471;44.918;8.614;2023-10-08T02:30:19;41.92;;;27.73;;
77055;SDS011;67471;44.918;8.614;2023-10-08T02:33:23;43.25;;;28.95;;
77055;SDS011;67471;44.918;8.614;2023-10-08T02:36:29;38.05;;;26.02;;
77055;SDS011;67471;44.918;8.614;2023-10-08T02:39:34;47.47;;;30.05;;
77055;SDS011;67471;44.918;8.614;2023-10-08T02:42:38;42.90;;;29.75;;
77055;SDS011;67471;44.918;8.614;2023-10-08T02:45:42;43.13;;;28.40;;
77055;SDS011;67471;44.918;8.614;2023-10-08T02:48:50;42.53;;;28.52;;
77055;SDS011;67471;44.918;8.614;2023-10-08T02:51:55;43.28;;;28.25;;
77055;SDS011;67471;44.918;8.614;2023-10-08T02:55:01;43.03;;;29.05;;
77055;SDS011;67471;44.918;8.614;2023-10-08T02:58:05;41.03;;;27.45;;
77055;SDS011;67471;44.918;8.614;2023-10-08T03:01:09;42.05;;;27.85;;
77055;SDS011;67471;44.918;8.614;2023-10-08T03:04:15;44.10;;;28.42;;
77055;SDS011;67471;44.918;8.614;2023-10-08T03:07:22;39.70;;;26.98;;
77055;SDS011;67471;44.918;8.614;2023-10-08T03:10:29;44.47;;;29.75;;
77055;SDS011;67471;44.918;8.614;2023-10-08T03:13:36;43.08;;;28.83;;
77055;SDS011;67471;44.918;8.614;2023-10-08T03:16:42;45.22;;;30.38;;
77055;SDS011;67471;44.918;8.614;2023-10-08T03:19:46;45.55;;;30.00;;
77055;SDS011;67471;44.918;8.614;2023-10-08T03:22:50;44.80;;;30.40;;
77055;SDS011;67471;44.918;8.614;2023-10-08T03:25:54;46.95;;;29.17;;
77055;SDS011;67471;44.918;8.614;2023-10-08T03:29:14;41.40;;;28.67;;
77055;SDS011;67471;44.918;8.614;2023-10-08T03:32:19;42.65;;;28.60;;
77055;SDS011;67471;44.918;8.614;2023-10-08T03:35:30;45.05;;;30.50;;
77055;SDS011;67471;44.918;8.614;2023-10-08T03:38:39;44.53;;;29.75;;
77055;SDS011;67471;44.918;8.614;2023-10-08T03:41:53;43.25;;;29.25;;
77055;SDS011;67471;44.918;8.614;2023-10-08T03:45:10;46.72;;;31.00;;
77055;SDS011;67471;44.918;8.614;2023-10-08T03:48:15;47.95;;;30.13;;
77055;SDS011;67471;44.918;8.614;2023-10-08T03:51:20;45.22;;;29.67;;
77055;SDS011;67471;44.918;8.614;2023-10-08T03:54:24;45.50;;;31.45;;
77055;SDS011;67471;44.918;8.614;2023-10-08T03:57:37;45.40;;;29.50;;
77055;SDS011;67471;44.918;8.614;2023-10-08T04:00:44;45.65;;;30.05;;
77055;SDS011;67471;44.918;8.614;2023-10-08T04:03:49;46.25;;;29.98;;
77055;SDS011;67471;44.918;8.614;2023-10-08T04:06:55;38.90;;;27.55;;
77055;SDS011;67471;44.918;8.614;2023-10-08T04:10:12;40.03;;;27.73;;
77055;SDS011;67471;44.918;8.614;2023-10-08T04:13:16;41.40;;;28.50;;
77055;SDS011;67471;44.918;8.614;2023-10-08T04:16:20;40.05;;;28.58;;
77055;SDS011;67471;44.918;8.614;2023-10-08T04:19:24;40.58;;;27.40;;
77055;SDS011;67471;44.918;8.614;2023-10-08T04:22:29;37.72;;;26.90;;
77055;SDS011;67471;44.918;8.614;2023-10-08T04:25:33;34.95;;;26.40;;
77055;SDS011;67471;44.918;8.614;2023-10-08T04:28:37;35.40;;;24.77;;
77055;SDS011;67471;44.918;8.614;2023-10-08T04:31:41;34.05;;;25.40;;
77055;SDS011;67471;44.918;8.614;2023-10-08T04:34:50;35.35;;;26.02;;
77055;SDS011;67471;44.918;8.614;2023-10-08T04:37:56;40.67;;;28.52;;
77055;SDS011;67471;44.918;8.614;2023-10-08T04:40:59;41.63;;;27.63;;
77055;SDS011;67471;44.918;8.614;2023-10-08T04:44:06;45.55;;;28.38;;
77055;SDS011;67471;44.918;8.614;2023-10-08T04:47:17;47.05;;;29.60;;
77055;SDS011;67471;44.918;8.614;2023-10-08T04:50:36;43.47;;;28.63;;
77055;SDS011;67471;44.918;8.614;2023-10-08T04:53:40;42.67;;;29.23;;
77055;SDS011;67471;44.918;8.614;2023-10-08T04:56:47;45.50;;;27.77;;
77055;SDS011;67471;44.918;8.614;2023-10-08T04:59:52;35.85;;;24.63;;
77055;SDS011;67471;44.918;8.614;2023-10-08T05:03:01;36.38;;;25.77;;
77055;SDS011;67471;44.918;8.614;2023-10-08T05:06:14;36.50;;;26.10;;
77055;SDS011;67471;44.918;8.614;2023-10-08T05:09:30;40.20;;;26.30;;
77055;SDS011;67471;44.918;8.614;2023-10-08T05:12:51;38.75;;;24.92;;
77055;SDS011;67471;44.918;8.614;2023-10-08T05:16:18;36.38;;;26.00;;
77055;SDS011;67471;44.918;8.614;2023-10-08T05:19:48;37.08;;;25.42;;
77055;SDS011;67471;44.918;8.614;2023-10-08T05:23:23;37.70;;;25.63;;
77055;SDS011;67471;44.918;8.614;2023-10-08T05:26:32;38.90;;;25.92;;
77055;SDS011;67471;44.918;8.614;2023-10-08T05:29:45;31.40;;;22.60;;
77055;SDS011;67471;44.918;8.614;2023-10-08T05:33:17;28.77;;;22.23;;
77055;SDS011;67471;44.918;8.614;2023-10-08T05:36:28;27.38;;;20.35;;
77055;SDS011;67471;44.918;8.614;2023-10-08T05:39:38;25.40;;;20.38;;
77055;SDS011;67471;44.918;8.614;2023-10-08T05:42:42;25.17;;;20.08;;
77055;SDS011;67471;44.918;8.614;2023-10-08T05:45:50;23.75;;;19.45;;
77055;SDS011;67471;44.918;8.614;2023-10-08T05:49:16;23.08;;;19.10;;
77055;SDS011;67471;44.918;8.614;2023-10-08T05:52:39;24.52;;;19.65;;
77055;SDS011;67471;44.918;8.614;2023-10-08T05:56:04;26.88;;;20.75;;
77055;SDS011;67471;44.918;8.614;2023-10-08T05:59:19;28.42;;;21.27;;
77055;SDS011;67471;44.918;8.614;2023-10-08T06:02:31;27.80;;;21.23;;
77055;SDS011;67471;44.918;8.614;2023-10-08T06:05:41;27.30;;;21.58;;
77055;SDS011;67471;44.918;8.614;2023-10-08T06:08:49;33.40;;;21.92;;
77055;SDS011;67471;44.918;8.614;2023-10-08T06:12:08;30.52;;;21.48;;
77055;SDS011;67471;44.918;8.614;2023-10-08T06:15:22;26.77;;;19.40;;
77055;SDS011;67471;44.918;8.614;2023-10-08T06:18:41;26.40;;;20.30;;
77055;SDS011;67471;44.918;8.614;2023-10-08T06:21:45;31.63;;;19.70;;
77055;SDS011;67471;44.918;8.614;2023-10-08T06:24:49;26.65;;;19.98;;
77055;SDS011;67471;44.918;8.614;2023-10-08T06:27:53;25.80;;;19.83;;
77055;SDS011;67471;44.918;8.614;2023-10-08T06:30:58;25.80;;;20.20;;
77055;SDS011;67471;44.918;8.614;2023-10-08T06:34:02;28.45;;;20.23;;
77055;SDS011;67471;44.918;8.614;2023-10-08T06:37:06;28.00;;;19.67;;
77055;SDS011;67471;44.918;8.614;2023-10-08T06:40:11;24.92;;;18.65;;
77055;SDS011;67471;44.918;8.614;2023-10-08T06:43:36;23.50;;;18.55;;
77055;SDS011;67471;44.918;8.614;2023-10-08T06:50:02;22.60;;;17.80;;
77055;SDS011;67471;44.918;8.614;2023-10-08T06:53:08;20.90;;;17.25;;
77055;SDS011;67471;44.918;8.614;2023-10-08T06:56:14;23.48;;;18.35;;
77055;SDS011;67471;44.918;8.614;2023-10-08T06:59:18;21.83;;;18.02;;
77055;SDS011;67471;44.918;8.614;2023-10-08T07:02:22;20.02;;;16.83;;
77055;SDS011;67471;44.918;8.614;2023-10-08T07:05:26;17.60;;;15.75;;
77055;SDS011;67471;44.918;8.614;2023-10-08T07:08:32;21.10;;;16.05;;
77055;SDS011;67471;44.918;8.614;2023-10-08T07:11:39;20.58;;;17.38;;
77055;SDS011;67471;44.918;8.614;2023-10-08T07:14:48;17.30;;;15.50;;
77055;SDS011;67471;44.918;8.614;2023-10-08T07:17:52;20.48;;;16.77;;
77055;SDS011;67471;44.918;8.614;2023-10-08T07:20:55;17.60;;;15.70;;
77055;SDS011;67471;44.918;8.614;2023-10-08T07:24:05;18.45;;;16.13;;
77055;SDS011;67471;44.918;8.614;2023-10-08T07:27:19;18.13;;;16.23;;
77055;SDS011;67471;44.918;8.614;2023-10-08T07:30:37;24.38;;;17.05;;
77055;SDS011;67471;44.918;8.614;2023-10-08T07:33:48;21.23;;;17.50;;
77055;SDS011;67471;44.918;8.614;2023-10-08T07:36:59;20.20;;;17.88;;
77055;SDS011;67471;44.918;8.614;2023-10-08T07:40:04;23.52;;;18.35;;
77055;SDS011;67471;44.918;8.614;2023-10-08T07:43:11;23.67;;;19.65;;
77055;SDS011;67471;44.918;8.614;2023-10-08T07:46:16;26.40;;;19.17;;
77055;SDS011;67471;44.918;8.614;2023-10-08T07:49:23;26.30;;;20.40;;
77055;SDS011;67471;44.918;8.614;2023-10-08T07:52:28;23.27;;;19.67;;
77055;SDS011;67471;44.918;8.614;2023-10-08T07:55:34;21.05;;;18.75;;
77055;SDS011;67471;44.918;8.614;2023-10-08T07:58:38;22.27;;;19.92;;
77055;SDS011;67471;44.918;8.614;2023-10-08T08:01:42;24.35;;;19.65;;
77055;SDS011;67471;44.918;8.614;2023-10-08T08:04:50;24.77;;;19.63;;
77055;SDS011;67471;44.918;8.614;2023-10-08T08:07:54;25.20;;;21.40;;
77055;SDS011;67471;44.918;8.614;2023-10-08T08:11:00;28.30;;;21.00;;
77055;SDS011;67471;44.918;8.614;2023-10-08T08:14:10;27.80;;;22.70;;
77055;SDS011;67471;44.918;8.614;2023-10-08T08:17:14;26.98;;;21.67;;
77055;SDS011;67471;44.918;8.614;2023-10-08T08:20:19;24.40;;;20.02;;
77055;SDS011;67471;44.918;8.614;2023-10-08T08:23:22;24.73;;;19.75;;
77055;SDS011;67471;44.918;8.614;2023-10-08T08:26:27;27.83;;;21.00;;
77055;SDS011;67471;44.918;8.614;2023-10-08T08:29:30;27.42;;;22.77;;
77055;SDS011;67471;44.918;8.614;2023-10-08T08:32:46;26.35;;;21.60;;
77055;SDS011;67471;44.918;8.614;2023-10-08T08:35:59;31.23;;;22.35;;
77055;SDS011;67471;44.918;8.614;2023-10-08T08:39:04;27.33;;;23.27;;
77055;SDS011;67471;44.918;8.614;2023-10-08T08:42:11;28.15;;;21.30;;
77055;SDS011;67471;44.918;8.614;2023-10-08T08:45:19;29.67;;;23.00;;
77055;SDS011;67471;44.918;8.614;2023-10-08T08:48:27;23.85;;;20.88;;
77055;SDS011;67471;44.918;8.614;2023-10-08T08:51:36;27.88;;;21.70;;
77055;SDS011;67471;44.918;8.614;2023-10-08T08:57:48;33.13;;;23.58;;
77055;SDS011;67471;44.918;8.614;2023-10-08T09:00:54;27.65;;;22.05;;
77055;SDS011;67471;44.918;8.614;2023-10-08T09:04:02;26.90;;;21.92;;
77055;SDS011;67471;44.918;8.614;2023-10-08T09:07:08;40.47;;;29.33;;
77055;SDS011;67471;44.918;8.614;2023-10-08T09:10:12;30.60;;;24.33;;
77055;SDS011;67471;44.918;8.614;2023-10-08T09:13:18;28.60;;;21.98;;
77055;SDS011;67471;44.918;8.614;2023-10-08T09:16:24;30.42;;;24.73;;
77055;SDS011;67471;44.918;8.614;2023-10-08T09:19:28;27.45;;;21.20;;
77055;SDS011;67471;44.918;8.614;2023-10-08T09:22:32;29.73;;;22.73;;
77055;SDS011;67471;44.918;8.614;2023-10-08T09:25:36;30.75;;;21.70;;
77055;SDS011;67471;44.918;8.614;2023-10-08T09:28:46;25.50;;;19.92;;
77055;SDS011;67471;44.918;8.614;2023-10-08T09:31:57;25.67;;;21.58;;
77055;SDS011;67471;44.918;8.614;2023-10-08T09:35:01;25.50;;;20.58;;
77055;SDS011;67471;44.918;8.614;2023-10-08T09:38:09;22.48;;;19.40;;
77055;SDS011;67471;44.918;8.614;2023-10-08T09:41:12;21.42;;;18.35;;
77055;SDS011;67471;44.918;8.614;2023-10-08T09:44:18;23.52;;;18.98;;
77055;SDS011;67471;44.918;8.614;2023-10-08T09:47:23;22.13;;;17.30;;
77055;SDS011;67471;44.918;8.614;2023-10-08T09:50:31;24.63;;;20.52;;
77055;SDS011;67471;44.918;8.614;2023-10-08T09:56:58;21.63;;;17.38;;
77055;SDS011;67471;44.918;8.614;2023-10-08T10:00:04;22.90;;;18.15;;
77055;SDS011;67471;44.918;8.614;2023-10-08T10:03:18;19.48;;;16.73;;
77055;SDS011;67471;44.918;8.614;2023-10-08T10:06:24;17.65;;;15.68;;
77055;SDS011;67471;44.918;8.614;2023-10-08T10:09:28;23.13;;;15.35;;
77055;SDS011;67471;44.918;8.614;2023-10-08T10:12:32;18.65;;;13.60;;
77055;SDS011;67471;44.918;8.614;2023-10-08T10:15:36;17.60;;;14.27;;
77055;SDS011;67471;44.918;8.614;2023-10-08T10:18:43;14.75;;;11.82;;
77055;SDS011;67471;44.918;8.614;2023-10-08T10:21:49;15.50;;;11.60;;
77055;SDS011;67471;44.918;8.614;2023-10-08T10:24:58;14.23;;;11.55;;
77055;SDS011;67471;44.918;8.614;2023-10-08T10:31:24;19.90;;;10.82;;
77055;SDS011;67471;44.918;8.614;2023-10-08T10:34:28;10.88;;;9.35;;
77055;SDS011;67471;44.918;8.614;2023-10-08T10:37:33;15.13;;;10.18;;
77055;SDS011;67471;44.918;8.614;2023-10-08T10:40:48;11.85;;;9.75;;
77055;SDS011;67471;44.918;8.614;2023-10-08T10:44:00;12.38;;;9.40;;
77055;SDS011;67471;44.918;8.614;2023-10-08T10:47:11;11.75;;;9.00;;
77055;SDS011;67471;44.918;8.614;2023-10-08T10:50:21;13.55;;;10.18;;
77055;SDS011;67471;44.918;8.614;2023-10-08T10:53:35;11.48;;;9.70;;
77055;SDS011;67471;44.918;8.614;2023-10-08T10:57:01;17.00;;;9.50;;
77055;SDS011;67471;44.918;8.614;2023-10-08T11:00:09;11.10;;;8.13;;
77055;SDS011;67471;44.918;8.614;2023-10-08T11:03:33;14.88;;;8.90;;
77055;SDS011;67471;44.918;8.614;2023-10-08T11:06:38;14.95;;;9.30;;
77055;SDS011;67471;44.918;8.614;2023-10-08T11:09:42;13.27;;;9.02;;
77055;SDS011;67471;44.918;8.614;2023-10-08T11:12:47;11.57;;;8.80;;
77055;SDS011;67471;44.918;8.614;2023-10-08T11:15:57;10.68;;;8.52;;
77055;SDS011;67471;44.918;8.614;2023-10-08T11:19:02;11.50;;;7.95;;
77055;SDS011;67471;44.918;8.614;2023-10-08T11:22:09;11.27;;;7.47;;
77055;SDS011;67471;44.918;8.614;2023-10-08T11:25:23;14.35;;;8.10;;
77055;SDS011;67471;44.918;8.614;2023-10-08T11:28:38;11.45;;;7.70;;
77055;SDS011;67471;44.918;8.614;2023-10-08T11:31:45;12.13;;;8.45;;
77055;SDS011;67471;44.918;8.614;2023-10-08T11:34:49;12.00;;;7.35;;
77055;SDS011;67471;44.918;8.614;2023-10-08T11:37:57;11.52;;;7.80;;
77055;SDS011;67471;44.918;8.614;2023-10-08T11:41:10;13.75;;;8.02;;
77055;SDS011;67471;44.918;8.614;2023-10-08T11:44:16;12.40;;;9.38;;
77055;SDS011;67471;44.918;8.614;2023-10-08T11:47:23;12.93;;;8.02;;
77055;SDS011;67471;44.918;8.614;2023-10-08T11:50:28;11.65;;;7.70;;
77055;SDS011;67471;44.918;8.614;2023-10-08T11:53:35;10.55;;;7.40;;
77055;SDS011;67471;44.918;8.614;2023-10-08T11:56:40;10.40;;;7.00;;
77055;SDS011;67471;44.918;8.614;2023-10-08T11:59:44;12.20;;;7.28;;
77055;SDS011;67471;44.918;8.614;2023-10-08T12:02:50;9.48;;;6.32;;
77055;SDS011;67471;44.918;8.614;2023-10-08T12:05:57;10.75;;;6.82;;
77055;SDS011;67471;44.918;8.614;2023-10-08T12:09:04;10.23;;;6.72;;
77055;SDS011;67471;44.918;8.614;2023-10-08T12:12:15;10.80;;;6.40;;
77055;SDS011;67471;44.918;8.614;2023-10-08T12:15:22;8.80;;;5.88;;
77055;SDS011;67471;44.918;8.614;2023-10-08T12:18:29;12.70;;;6.25;;
77055;SDS011;67471;44.918;8.614;2023-10-08T12:21:33;10.20;;;5.95;;
77055;SDS011;67471;44.918;8.614;2023-10-08T12:24:37;9.68;;;5.95;;
77055;SDS011;67471;44.918;8.614;2023-10-08T12:27:42;11.05;;;6.57;;
77055;SDS011;67471;44.918;8.614;2023-10-08T12:30:45;12.45;;;6.50;;
77055;SDS011;67471;44.918;8.614;2023-10-08T12:33:50;10.82;;;6.07;;
77055;SDS011;67471;44.918;8.614;2023-10-08T12:36:56;8.90;;;5.40;;
77055;SDS011;67471;44.918;8.614;2023-10-08T12:40:01;10.85;;;6.35;;
77055;SDS011;67471;44.918;8.614;2023-10-08T12:43:14;8.00;;;5.68;;
77055;SDS011;67471;44.918;8.614;2023-10-08T12:46:22;8.40;;;5.80;;
77055;SDS011;67471;44.918;8.614;2023-10-08T12:49:28;8.45;;;5.95;;
77055;SDS011;67471;44.918;8.614;2023-10-08T12:52:36;11.48;;;6.05;;
77055;SDS011;67471;44.918;8.614;2023-10-08T12:55:42;10.10;;;6.07;;
77055;SDS011;67471;44.918;8.614;2023-10-08T12:58:47;9.18;;;5.63;;
77055;SDS011;67471;44.918;8.614;2023-10-08T13:01:57;9.63;;;6.10;;
77055;SDS011;67471;44.918;8.614;2023-10-08T13:05:01;8.73;;;6.05;;
77055;SDS011;67471;44.918;8.614;2023-10-08T13:08:05;12.30;;;6.68;;
77055;SDS011;67471;44.918;8.614;2023-10-08T13:11:13;8.93;;;6.10;;
77055;SDS011;67471;44.918;8.614;2023-10-08T13:14:17;9.98;;;5.63;;
77055;SDS011;67471;44.918;8.614;2023-10-08T13:17:21;13.63;;;6.32;;
77055;SDS011;67471;44.918;8.614;2023-10-08T13:20:24;8.25;;;5.82;;
77055;SDS011;67471;44.918;8.614;2023-10-08T13:23:29;13.30;;;6.75;;
77055;SDS011;67471;44.918;8.614;2023-10-08T13:26:34;9.68;;;5.72;;
77055;SDS011;67471;44.918;8.614;2023-10-08T13:29:41;9.20;;;5.77;;
77055;SDS011;67471;44.918;8.614;2023-10-08T13:32:44;10.02;;;5.70;;
77055;SDS011;67471;44.918;8.614;2023-10-08T13:35:49;11.65;;;6.45;;
77055;SDS011;67471;44.918;8.614;2023-10-08T13:38:54;9.30;;;6.00;;
77055;SDS011;67471;44.918;8.614;2023-10-08T13:41:58;14.65;;;6.50;;
77055;SDS011;67471;44.918;8.614;2023-10-08T13:45:04;9.98;;;5.85;;
77055;SDS011;67471;44.918;8.614;2023-10-08T13:48:12;9.90;;;5.40;;
77055;SDS011;67471;44.918;8.614;2023-10-08T13:51:18;10.13;;;5.53;;
77055;SDS011;67471;44.918;8.614;2023-10-08T13:54:27;11.63;;;5.40;;
77055;SDS011;67471;44.918;8.614;2023-10-08T13:57:35;9.07;;;5.93;;
77055;SDS011;67471;44.918;8.614;2023-10-08T14:00:38;9.70;;;6.45;;
77055;SDS011;67471;44.918;8.614;2023-10-08T14:03:42;9.00;;;5.95;;
77055;SDS011;67471;44.918;8.614;2023-10-08T14:06:46;12.38;;;6.70;;
77055;SDS011;67471;44.918;8.614;2023-10-08T14:10:01;10.80;;;6.97;;
77055;SDS011;67471;44.918;8.614;2023-10-08T14:13:11;11.68;;;5.70;;
77055;SDS011;67471;44.918;8.614;2023-10-08T14:16:15;10.50;;;5.90;;
77055;SDS011;67471;44.918;8.614;2023-10-08T14:19:20;10.40;;;5.05;;
77055;SDS011;67471;44.918;8.614;2023-10-08T14:22:31;11.68;;;5.90;;
77055;SDS011;67471;44.918;8.614;2023-10-08T14:25:35;12.32;;;5.18;;
77055;SDS011;67471;44.918;8.614;2023-10-08T14:28:45;12.10;;;5.53;;
77055;SDS011;67471;44.918;8.614;2023-10-08T14:31:57;6.40;;;4.60;;
77055;SDS011;67471;44.918;8.614;2023-10-08T14:35:03;12.98;;;6.55;;
77055;SDS011;67471;44.918;8.614;2023-10-08T14:38:25;8.27;;;5.60;;
77055;SDS011;67471;44.918;8.614;2023-10-08T14:41:47;9.15;;;6.18;;
77055;SDS011;67471;44.918;8.614;2023-10-08T14:45:09;8.65;;;5.78;;
77055;SDS011;67471;44.918;8.614;2023-10-08T14:48:16;10.50;;;5.68;;
77055;SDS011;67471;44.918;8.614;2023-10-08T14:51:20;11.18;;;6.40;;
77055;SDS011;67471;44.918;8.614;2023-10-08T14:54:25;9.50;;;5.97;;
77055;SDS011;67471;44.918;8.614;2023-10-08T14:57:29;12.23;;;6.78;;
77055;SDS011;67471;44.918;8.614;2023-10-08T15:00:33;12.70;;;6.35;;
77055;SDS011;67471;44.918;8.614;2023-10-08T15:03:39;8.95;;;5.72;;
77055;SDS011;67471;44.918;8.614;2023-10-08T15:06:42;8.90;;;5.78;;
77055;SDS011;67471;44.918;8.614;2023-10-08T15:09:46;10.82;;;6.45;;
77055;SDS011;67471;44.918;8.614;2023-10-08T15:12:53;10.13;;;5.43;;
77055;SDS011;67471;44.918;8.614;2023-10-08T15:15:57;9.13;;;6.07;;
77055;SDS011;67471;44.918;8.614;2023-10-08T15:19:02;10.82;;;5.65;;
77055;SDS011;67471;44.918;8.614;2023-10-08T15:22:07;13.07;;;6.28;;
77055;SDS011;67471;44.918;8.614;2023-10-08T15:25:12;12.75;;;7.25;;
77055;SDS011;67471;44.918;8.614;2023-10-08T15:28:16;12.10;;;7.72;;
77055;SDS011;67471;44.918;8.614;2023-10-08T15:31:20;12.52;;;5.93;;
77055;SDS011;67471;44.918;8.614;2023-10-08T15:34:23;10.38;;;5.95;;
77055;SDS011;67471;44.918;8.614;2023-10-08T15:37:29;12.88;;;6.82;;
77055;SDS011;67471;44.918;8.614;2023-10-08T15:40:33;11.40;;;7.00;;
77055;SDS011;67471;44.918;8.614;2023-10-08T15:43:38;9.73;;;6.63;;
77055;SDS011;67471;44.918;8.614;2023-10-08T15:46:42;17.17;;;7.32;;
77055;SDS011;67471;44.918;8.614;2023-10-08T15:49:45;11.02;;;5.63;;
77055;SDS011;67471;44.918;8.614;2023-10-08T15:52:49;13.50;;;7.22;;
77055;SDS011;67471;44.918;8.614;2023-10-08T15:55:53;20.27;;;9.68;;
77055;SDS011;67471;44.918;8.614;2023-10-08T15:58:57;18.88;;;9.02;;
77055;SDS011;67471;44.918;8.614;2023-10-08T16:02:01;17.50;;;7.28;;
77055;SDS011;67471;44.918;8.614;2023-10-08T16:05:04;13.02;;;7.70;;
77055;SDS011;67471;44.918;8.614;2023-10-08T16:08:11;17.55;;;7.57;;
77055;SDS011;67471;44.918;8.614;2023-10-08T16:11:15;18.15;;;9.93;;
77055;SDS011;67471;44.918;8.614;2023-10-08T16:14:19;12.35;;;7.82;;
77055;SDS011;67471;44.918;8.614;2023-10-08T16:17:24;19.60;;;8.75;;
77055;SDS011;67471;44.918;8.614;2023-10-08T16:20:27;12.43;;;7.35;;
77055;SDS011;67471;44.918;8.614;2023-10-08T16:23:31;13.45;;;8.48;;
77055;SDS011;67471;44.918;8.614;2023-10-08T16:26:39;11.48;;;7.82;;
77055;SDS011;67471;44.918;8.614;2023-10-08T16:29:44;15.80;;;7.25;;
77055;SDS011;67471;44.918;8.614;2023-10-08T16:32:48;14.57;;;7.28;;
77055;SDS011;67471;44.918;8.614;2023-10-08T16:35:53;17.35;;;8.25;;
77055;SDS011;67471;44.918;8.614;2023-10-08T16:38:56;12.60;;;7.50;;
77055;SDS011;67471;44.918;8.614;2023-10-08T16:42:00;11.80;;;7.30;;
77055;SDS011;67471;44.918;8.614;2023-10-08T16:45:07;13.32;;;7.10;;
77055;SDS011;67471;44.918;8.614;2023-10-08T16:48:13;16.02;;;7.30;;
77055;SDS011;67471;44.918;8.614;2023-10-08T16:51:21;13.85;;;6.13;;
77055;SDS011;67471;44.918;8.614;2023-10-08T16:54:25;17.92;;;8.52;;
77055;SDS011;67471;44.918;8.614;2023-10-08T16:57:28;17.73;;;8.73;;
77055;SDS011;67471;44.918;8.614;2023-10-08T17:00:32;20.25;;;10.23;;
77055;SDS011;67471;44.918;8.614;2023-10-08T17:03:37;19.00;;;11.15;;
77055;SDS011;67471;44.918;8.614;2023-10-08T17:06:41;19.85;;;11.13;;
77055;SDS011;67471;44.918;8.614;2023-10-08T17:09:45;17.42;;;9.88;;
77055;SDS011;67471;44.918;8.614;2023-10-08T17:12:50;15.45;;;9.80;;
77055;SDS011;67471;44.918;8.614;2023-10-08T17:15:55;17.65;;;8.43;;
77055;SDS011;67471;44.918;8.614;2023-10-08T17:18:58;17.98;;;8.73;;
77055;SDS011;67471;44.918;8.614;2023-10-08T17:22:02;23.58;;;9.75;;
77055;SDS011;67471;44.918;8.614;2023-10-08T17:25:07;29.65;;;10.05;;
77055;SDS011;67471;44.918;8.614;2023-10-08T17:28:13;16.95;;;12.68;;
77055;SDS011;67471;44.918;8.614;2023-10-08T17:31:16;28.10;;;22.40;;
77055;SDS011;67471;44.918;8.614;2023-10-08T17:34:21;19.85;;;9.90;;
77055;SDS011;67471;44.918;8.614;2023-10-08T17:37:26;14.00;;;8.15;;
77055;SDS011;67471;44.918;8.614;2023-10-08T17:40:30;14.23;;;8.02;;
77055;SDS011;67471;44.918;8.614;2023-10-08T17:43:34;18.13;;;9.73;;
77055;SDS011;67471;44.918;8.614;2023-10-08T17:46:39;17.10;;;8.05;;
77055;SDS011;67471;44.918;8.614;2023-10-08T17:49:43;16.80;;;7.60;;
77055;SDS011;67471;44.918;8.614;2023-10-08T17:52:47;16.90;;;7.30;;
77055;SDS011;67471;44.918;8.614;2023-10-08T17:55:52;15.18;;;9.15;;
77055;SDS011;67471;44.918;8.614;2023-10-08T17:58:58;18.85;;;10.43;;
77055;SDS011;67471;44.918;8.614;2023-10-08T18:02:06;17.17;;;8.85;;
77055;SDS011;67471;44.918;8.614;2023-10-08T18:05:10;15.07;;;9.15;;
77055;SDS011;67471;44.918;8.614;2023-10-08T18:08:19;22.15;;;8.45;;
77055;SDS011;67471;44.918;8.614;2023-10-08T18:11:26;15.85;;;7.82;;
77055;SDS011;67471;44.918;8.614;2023-10-08T18:14:30;16.63;;;8.02;;
77055;SDS011;67471;44.918;8.614;2023-10-08T18:17:35;16.88;;;8.13;;
77055;SDS011;67471;44.918;8.614;2023-10-08T18:20:39;15.57;;;7.85;;
77055;SDS011;67471;44.918;8.614;2023-10-08T18:23:47;14.68;;;7.13;;
77055;SDS011;67471;44.918;8.614;2023-10-08T18:26:52;13.45;;;7.47;;
77055;SDS011;67471;44.918;8.614;2023-10-08T18:29:56;22.05;;;8.77;;
77055;SDS011;67471;44.918;8.614;2023-10-08T18:33:00;20.88;;;8.57;;
77055;SDS011;67471;44.918;8.614;2023-10-08T18:36:08;18.45;;;8.48;;